sensor_id;sensor_type;location;lat;lon;timestamp;P1;durP1;ratioP1;P2;durP2;ratioP2
15488;SDS011;7846;48.830;9.116;2022-12-22T00:02:35;1.37;;;1.27;;
15488;SDS011;7846;48.830;9.116;2022-12-22T00:05:21;2.00;;;1.27;;
15488;SDS011;7846;48.830;9.116;2022-12-22T00:08:06;1.40;;;1.10;;
15488;SDS011;7846;48.830;9.116;2022-12-22T00:10:53;1.27;;;1.20;;
15488;SDS011;7846;48.830;9.116;2022-12-22T00:13:40;1.30;;;1.20;;
15488;SDS011;7846;48.830;9.116;2022-12-22T00:16:28;2.37;;;1.03;;
15488;SDS011;7846;48.830;9.116;2022-12-22T00:19:14;1.50;;;1.40;;
15488;SDS011;7846;48.830;9.116;2022-12-22T00:22:00;1.37;;;1.27;;
15488;SDS011;7846;48.830;9.116;2022-12-22T00:24:45;1.47;;;1.30;;
15488;SDS011;7846;48.830;9.116;2022-12-22T00:27:29;2.13;;;1.57;;
15488;SDS011;7846;48.830;9.116;2022-12-22T00:30:14;1.73;;;1.30;;
15488;SDS011;7846;48.830;9.116;2022-12-22T00:32:59;1.43;;;1.20;;
15488;SDS011;7846;48.830;9.116;2022-12-22T00:35:45;1.43;;;1.20;;
15488;SDS011;7846;48.830;9.116;2022-12-22T00:38:29;1.60;;;1.50;;
15488;SDS011;7846;48.830;9.116;2022-12-22T00:41:13;1.20;;;1.10;;
15488;SDS011;7846;48.830;9.116;2022-12-22T00:43:58;1.30;;;1.10;;
15488;SDS011;7846;48.830;9.116;2022-12-22T00:46:43;1.53;;;1.10;;
15488;SDS011;7846;48.830;9.116;2022-12-22T00:49:29;1.00;;;1.00;;
15488;SDS011;7846;48.830;9.116;2022-12-22T00:52:17;1.20;;;0.90;;
15488;SDS011;7846;48.830;9.116;2022-12-22T00:55:10;1.13;;;0.90;;
15488;SDS011;7846;48.830;9.116;2022-12-22T00:58:00;1.23;;;1.10;;
15488;SDS011;7846;48.830;9.116;2022-12-22T01:00:46;1.10;;;1.07;;
15488;SDS011;7846;48.830;9.116;2022-12-22T01:03:31;0.90;;;0.90;;
15488;SDS011;7846;48.830;9.116;2022-12-22T01:06:14;1.50;;;1.00;;
15488;SDS011;7846;48.830;9.116;2022-12-22T01:08:59;1.93;;;0.93;;
15488;SDS011;7846;48.830;9.116;2022-12-22T01:11:43;1.63;;;0.93;;
15488;SDS011;7846;48.830;9.116;2022-12-22T01:14:28;1.03;;;0.97;;
15488;SDS011;7846;48.830;9.116;2022-12-22T01:17:12;1.10;;;1.00;;
15488;SDS011;7846;48.830;9.116;2022-12-22T01:19:56;0.80;;;0.80;;
15488;SDS011;7846;48.830;9.116;2022-12-22T01:22:40;1.10;;;0.90;;
15488;SDS011;7846;48.830;9.116;2022-12-22T01:25:24;2.10;;;1.10;;
15488;SDS011;7846;48.830;9.116;2022-12-22T01:28:12;0.93;;;0.90;;
15488;SDS011;7846;48.830;9.116;2022-12-22T01:31:01;0.80;;;0.80;;
15488;SDS011;7846;48.830;9.116;2022-12-22T01:34:02;2.40;;;0.90;;
15488;SDS011;7846;48.830;9.116;2022-12-22T01:36:46;1.57;;;1.00;;
15488;SDS011;7846;48.830;9.116;2022-12-22T01:39:30;2.40;;;1.00;;
15488;SDS011;7846;48.830;9.116;2022-12-22T01:42:14;1.27;;;1.17;;
15488;SDS011;7846;48.830;9.116;2022-12-22T01:45:17;2.00;;;1.20;;
15488;SDS011;7846;48.830;9.116;2022-12-22T01:48:14;1.43;;;1.10;;
15488;SDS011;7846;48.830;9.116;2022-12-22T01:51:02;1.47;;;1.23;;
15488;SDS011;7846;48.830;9.116;2022-12-22T01:53:50;2.27;;;1.23;;
15488;SDS011;7846;48.830;9.116;2022-12-22T01:56:35;1.20;;;1.10;;
15488;SDS011;7846;48.830;9.116;2022-12-22T01:59:20;1.60;;;1.20;;
15488;SDS011;7846;48.830;9.116;2022-12-22T02:02:04;1.43;;;1.10;;
15488;SDS011;7846;48.830;9.116;2022-12-22T02:04:50;1.83;;;1.20;;
15488;SDS011;7846;48.830;9.116;2022-12-22T02:23:28;5.00;;;1.60;;
15488;SDS011;7846;48.830;9.116;2022-12-22T02:29:29;1.50;;;1.40;;
15488;SDS011;7846;48.830;9.116;2022-12-22T02:32:21;2.10;;;1.53;;
15488;SDS011;7846;48.830;9.116;2022-12-22T02:35:14;2.00;;;1.47;;
15488;SDS011;7846;48.830;9.116;2022-12-22T02:38:19;2.07;;;1.50;;
15488;SDS011;7846;48.830;9.116;2022-12-22T02:41:26;1.80;;;1.53;;
15488;SDS011;7846;48.830;9.116;2022-12-22T02:50:16;1.20;;;1.10;;
15488;SDS011;7846;48.830;9.116;2022-12-22T02:53:04;1.50;;;1.40;;
15488;SDS011;7846;48.830;9.116;2022-12-22T02:55:56;1.40;;;1.30;;
15488;SDS011;7846;48.830;9.116;2022-12-22T02:58:42;3.80;;;1.17;;
15488;SDS011;7846;48.830;9.116;2022-12-22T03:01:26;1.50;;;1.20;;
15488;SDS011;7846;48.830;9.116;2022-12-22T03:04:10;1.63;;;1.30;;
15488;SDS011;7846;48.830;9.116;2022-12-22T03:06:54;1.13;;;0.97;;
15488;SDS011;7846;48.830;9.116;2022-12-22T03:09:41;1.23;;;1.10;;
15488;SDS011;7846;48.830;9.116;2022-12-22T03:12:24;1.47;;;1.20;;
15488;SDS011;7846;48.830;9.116;2022-12-22T03:15:08;1.23;;;1.00;;
15488;SDS011;7846;48.830;9.116;2022-12-22T03:17:54;1.70;;;1.10;;
15488;SDS011;7846;48.830;9.116;2022-12-22T03:20:43;2.50;;;1.07;;
15488;SDS011;7846;48.830;9.116;2022-12-22T03:23:27;1.97;;;1.03;;
15488;SDS011;7846;48.830;9.116;2022-12-22T03:26:11;1.07;;;1.00;;
15488;SDS011;7846;48.830;9.116;2022-12-22T03:28:37;0.80;;;0.80;;
15488;SDS011;7846;48.830;9.116;2022-12-22T03:31:04;1.47;;;0.93;;
15488;SDS011;7846;48.830;9.116;2022-12-22T03:33:30;1.30;;;0.93;;
15488;SDS011;7846;48.830;9.116;2022-12-22T03:35:55;1.03;;;0.80;;
15488;SDS011;7846;48.830;9.116;2022-12-22T03:38:21;1.27;;;0.87;;
15488;SDS011;7846;48.830;9.116;2022-12-22T03:40:47;0.97;;;0.73;;
15488;SDS011;7846;48.830;9.116;2022-12-22T03:43:16;1.53;;;0.80;;
15488;SDS011;7846;48.830;9.116;2022-12-22T03:46:01;1.13;;;0.90;;
15488;SDS011;7846;48.830;9.116;2022-12-22T03:48:45;0.70;;;0.70;;
15488;SDS011;7846;48.830;9.116;2022-12-22T03:51:33;1.57;;;1.00;;
15488;SDS011;7846;48.830;9.116;2022-12-22T03:54:00;1.60;;;0.70;;
15488;SDS011;7846;48.830;9.116;2022-12-22T03:56:25;0.60;;;0.60;;
15488;SDS011;7846;48.830;9.116;2022-12-22T03:58:51;0.70;;;0.70;;
15488;SDS011;7846;48.830;9.116;2022-12-22T04:01:16;1.07;;;0.80;;
15488;SDS011;7846;48.830;9.116;2022-12-22T04:03:42;0.90;;;0.70;;
15488;SDS011;7846;48.830;9.116;2022-12-22T04:06:11;1.67;;;0.70;;
15488;SDS011;7846;48.830;9.116;2022-12-22T04:08:36;2.20;;;0.77;;
15488;SDS011;7846;48.830;9.116;2022-12-22T04:11:02;0.90;;;0.60;;
15488;SDS011;7846;48.830;9.116;2022-12-22T04:13:46;1.07;;;0.60;;
15488;SDS011;7846;48.830;9.116;2022-12-22T04:16:11;0.80;;;0.60;;
15488;SDS011;7846;48.830;9.116;2022-12-22T04:18:37;1.57;;;0.60;;
15488;SDS011;7846;48.830;9.116;2022-12-22T04:21:03;1.03;;;0.53;;
15488;SDS011;7846;48.830;9.116;2022-12-22T04:23:28;0.90;;;0.70;;
15488;SDS011;7846;48.830;9.116;2022-12-22T04:25:54;1.33;;;0.67;;
15488;SDS011;7846;48.830;9.116;2022-12-22T04:28:20;0.83;;;0.70;;
15488;SDS011;7846;48.830;9.116;2022-12-22T04:30:47;0.50;;;0.50;;
15488;SDS011;7846;48.830;9.116;2022-12-22T04:33:14;1.00;;;0.80;;
15488;SDS011;7846;48.830;9.116;2022-12-22T04:35:40;0.93;;;0.60;;
15488;SDS011;7846;48.830;9.116;2022-12-22T04:38:06;1.77;;;0.80;;
15488;SDS011;7846;48.830;9.116;2022-12-22T04:40:31;2.03;;;0.70;;
15488;SDS011;7846;48.830;9.116;2022-12-22T04:42:58;1.73;;;0.87;;
15488;SDS011;7846;48.830;9.116;2022-12-22T04:45:23;2.23;;;0.80;;
15488;SDS011;7846;48.830;9.116;2022-12-22T04:47:49;1.77;;;0.70;;
15488;SDS011;7846;48.830;9.116;2022-12-22T04:50:16;1.27;;;0.70;;
15488;SDS011;7846;48.830;9.116;2022-12-22T04:52:41;1.33;;;0.80;;
15488;SDS011;7846;48.830;9.116;2022-12-22T04:55:08;1.17;;;0.90;;
15488;SDS011;7846;48.830;9.116;2022-12-22T04:57:33;0.77;;;0.67;;
15488;SDS011;7846;48.830;9.116;2022-12-22T04:59:59;2.47;;;0.80;;
15488;SDS011;7846;48.830;9.116;2022-12-22T05:02:26;1.70;;;1.00;;
15488;SDS011;7846;48.830;9.116;2022-12-22T05:04:52;1.07;;;0.80;;
15488;SDS011;7846;48.830;9.116;2022-12-22T05:07:18;1.60;;;0.80;;
15488;SDS011;7846;48.830;9.116;2022-12-22T05:09:44;1.73;;;0.90;;
15488;SDS011;7846;48.830;9.116;2022-12-22T05:12:10;2.83;;;1.00;;
15488;SDS011;7846;48.830;9.116;2022-12-22T05:14:54;1.07;;;0.60;;
15488;SDS011;7846;48.830;9.116;2022-12-22T05:17:21;0.80;;;0.70;;
15488;SDS011;7846;48.830;9.116;2022-12-22T05:19:48;2.80;;;0.83;;
15488;SDS011;7846;48.830;9.116;2022-12-22T05:22:14;1.50;;;0.70;;
15488;SDS011;7846;48.830;9.116;2022-12-22T05:24:40;1.10;;;0.80;;
15488;SDS011;7846;48.830;9.116;2022-12-22T05:27:06;1.37;;;0.70;;
15488;SDS011;7846;48.830;9.116;2022-12-22T05:29:33;1.40;;;1.00;;
15488;SDS011;7846;48.830;9.116;2022-12-22T05:31:58;1.17;;;0.80;;
15488;SDS011;7846;48.830;9.116;2022-12-22T05:34:23;1.97;;;0.70;;
15488;SDS011;7846;48.830;9.116;2022-12-22T05:36:49;2.60;;;0.97;;
15488;SDS011;7846;48.830;9.116;2022-12-22T05:39:17;2.63;;;0.80;;
15488;SDS011;7846;48.830;9.116;2022-12-22T05:41:43;1.00;;;0.80;;
15488;SDS011;7846;48.830;9.116;2022-12-22T05:44:09;2.47;;;0.80;;
15488;SDS011;7846;48.830;9.116;2022-12-22T05:46:34;1.70;;;0.80;;
15488;SDS011;7846;48.830;9.116;2022-12-22T05:49:00;1.90;;;0.83;;
15488;SDS011;7846;48.830;9.116;2022-12-22T05:51:25;2.70;;;1.00;;
15488;SDS011;7846;48.830;9.116;2022-12-22T05:53:50;3.27;;;1.00;;
15488;SDS011;7846;48.830;9.116;2022-12-22T05:56:16;1.60;;;0.80;;
15488;SDS011;7846;48.830;9.116;2022-12-22T05:58:42;2.63;;;0.90;;
15488;SDS011;7846;48.830;9.116;2022-12-22T06:01:07;1.47;;;1.00;;
15488;SDS011;7846;48.830;9.116;2022-12-22T06:03:33;2.13;;;0.80;;
15488;SDS011;7846;48.830;9.116;2022-12-22T06:05:58;3.27;;;1.10;;
15488;SDS011;7846;48.830;9.116;2022-12-22T06:08:25;2.87;;;1.00;;
15488;SDS011;7846;48.830;9.116;2022-12-22T06:10:54;1.70;;;0.90;;
15488;SDS011;7846;48.830;9.116;2022-12-22T06:13:21;2.77;;;1.10;;
15488;SDS011;7846;48.830;9.116;2022-12-22T06:15:47;2.70;;;1.10;;
15488;SDS011;7846;48.830;9.116;2022-12-22T06:18:13;3.50;;;1.10;;
15488;SDS011;7846;48.830;9.116;2022-12-22T06:20:38;4.37;;;1.40;;
15488;SDS011;7846;48.830;9.116;2022-12-22T06:23:03;2.47;;;1.20;;
15488;SDS011;7846;48.830;9.116;2022-12-22T06:25:29;5.53;;;1.60;;
15488;SDS011;7846;48.830;9.116;2022-12-22T06:27:55;3.33;;;1.10;;
15488;SDS011;7846;48.830;9.116;2022-12-22T06:30:20;3.73;;;1.13;;
15488;SDS011;7846;48.830;9.116;2022-12-22T06:32:46;3.70;;;1.23;;
15488;SDS011;7846;48.830;9.116;2022-12-22T06:35:12;4.27;;;1.17;;
15488;SDS011;7846;48.830;9.116;2022-12-22T06:37:38;3.90;;;1.30;;
15488;SDS011;7846;48.830;9.116;2022-12-22T06:40:05;2.37;;;1.00;;
15488;SDS011;7846;48.830;9.116;2022-12-22T06:42:31;4.10;;;1.47;;
15488;SDS011;7846;48.830;9.116;2022-12-22T06:45:16;4.00;;;1.20;;
15488;SDS011;7846;48.830;9.116;2022-12-22T06:47:45;4.53;;;1.40;;
15488;SDS011;7846;48.830;9.116;2022-12-22T06:50:10;4.90;;;1.60;;
15488;SDS011;7846;48.830;9.116;2022-12-22T06:52:36;3.60;;;1.20;;
15488;SDS011;7846;48.830;9.116;2022-12-22T06:55:02;5.70;;;1.37;;
15488;SDS011;7846;48.830;9.116;2022-12-22T06:57:28;4.03;;;1.47;;
15488;SDS011;7846;48.830;9.116;2022-12-22T06:59:56;2.87;;;1.40;;
15488;SDS011;7846;48.830;9.116;2022-12-22T07:02:22;5.03;;;1.47;;
15488;SDS011;7846;48.830;9.116;2022-12-22T07:04:48;2.80;;;1.20;;
15488;SDS011;7846;48.830;9.116;2022-12-22T07:07:14;2.93;;;1.10;;
15488;SDS011;7846;48.830;9.116;2022-12-22T07:09:39;4.80;;;1.40;;
15488;SDS011;7846;48.830;9.116;2022-12-22T07:12:05;3.57;;;1.43;;
15488;SDS011;7846;48.830;9.116;2022-12-22T07:14:31;6.23;;;1.73;;
15488;SDS011;7846;48.830;9.116;2022-12-22T07:16:58;4.47;;;1.50;;
15488;SDS011;7846;48.830;9.116;2022-12-22T07:19:23;4.77;;;1.50;;
15488;SDS011;7846;48.830;9.116;2022-12-22T07:21:48;5.20;;;1.60;;
15488;SDS011;7846;48.830;9.116;2022-12-22T07:24:15;6.35;;;1.80;;
15488;SDS011;7846;48.830;9.116;2022-12-22T07:26:47;6.03;;;1.67;;
15488;SDS011;7846;48.830;9.116;2022-12-22T07:29:12;6.43;;;1.60;;
15488;SDS011;7846;48.830;9.116;2022-12-22T07:31:38;7.60;;;1.70;;
15488;SDS011;7846;48.830;9.116;2022-12-22T07:34:04;4.23;;;1.60;;
15488;SDS011;7846;48.830;9.116;2022-12-22T07:36:29;5.90;;;1.40;;
15488;SDS011;7846;48.830;9.116;2022-12-22T07:38:55;4.00;;;1.30;;
15488;SDS011;7846;48.830;9.116;2022-12-22T07:41:22;2.63;;;1.20;;
15488;SDS011;7846;48.830;9.116;2022-12-22T07:44:06;6.97;;;1.77;;
15488;SDS011;7846;48.830;9.116;2022-12-22T07:46:35;5.93;;;1.60;;
15488;SDS011;7846;48.830;9.116;2022-12-22T07:49:02;9.70;;;1.60;;
15488;SDS011;7846;48.830;9.116;2022-12-22T07:51:47;5.33;;;1.73;;
15488;SDS011;7846;48.830;9.116;2022-12-22T07:54:15;3.60;;;1.50;;
15488;SDS011;7846;48.830;9.116;2022-12-22T07:56:44;7.10;;;1.70;;
15488;SDS011;7846;48.830;9.116;2022-12-22T07:59:10;6.40;;;1.50;;
15488;SDS011;7846;48.830;9.116;2022-12-22T08:01:36;4.17;;;1.43;;
15488;SDS011;7846;48.830;9.116;2022-12-22T08:04:02;4.97;;;1.50;;
15488;SDS011;7846;48.830;9.116;2022-12-22T08:06:31;4.73;;;1.53;;
15488;SDS011;7846;48.830;9.116;2022-12-22T08:08:56;4.70;;;1.43;;
15488;SDS011;7846;48.830;9.116;2022-12-22T08:11:22;4.77;;;1.50;;
15488;SDS011;7846;48.830;9.116;2022-12-22T08:13:47;3.90;;;1.40;;
15488;SDS011;7846;48.830;9.116;2022-12-22T08:16:14;5.00;;;1.50;;
15488;SDS011;7846;48.830;9.116;2022-12-22T08:18:40;3.53;;;1.53;;
15488;SDS011;7846;48.830;9.116;2022-12-22T08:21:07;7.47;;;1.70;;
15488;SDS011;7846;48.830;9.116;2022-12-22T08:23:33;3.20;;;1.40;;
15488;SDS011;7846;48.830;9.116;2022-12-22T08:26:01;4.83;;;1.53;;
15488;SDS011;7846;48.830;9.116;2022-12-22T08:28:36;4.30;;;1.20;;
15488;SDS011;7846;48.830;9.116;2022-12-22T08:31:06;5.07;;;1.47;;
15488;SDS011;7846;48.830;9.116;2022-12-22T08:33:32;4.27;;;1.60;;
15488;SDS011;7846;48.830;9.116;2022-12-22T08:35:58;3.33;;;1.27;;
15488;SDS011;7846;48.830;9.116;2022-12-22T08:38:24;4.90;;;1.63;;
15488;SDS011;7846;48.830;9.116;2022-12-22T08:40:49;9.10;;;1.50;;
15488;SDS011;7846;48.830;9.116;2022-12-22T08:43:15;3.03;;;1.30;;
15488;SDS011;7846;48.830;9.116;2022-12-22T08:45:41;3.87;;;1.50;;
15488;SDS011;7846;48.830;9.116;2022-12-22T08:48:08;3.33;;;1.30;;
15488;SDS011;7846;48.830;9.116;2022-12-22T08:50:34;4.20;;;1.60;;
15488;SDS011;7846;48.830;9.116;2022-12-22T08:53:03;4.70;;;2.10;;
15488;SDS011;7846;48.830;9.116;2022-12-22T08:55:29;4.33;;;1.60;;
15488;SDS011;7846;48.830;9.116;2022-12-22T08:57:55;4.27;;;1.30;;
15488;SDS011;7846;48.830;9.116;2022-12-22T09:00:21;3.50;;;1.40;;
15488;SDS011;7846;48.830;9.116;2022-12-22T09:02:47;5.10;;;1.40;;
15488;SDS011;7846;48.830;9.116;2022-12-22T09:05:12;5.93;;;1.60;;
15488;SDS011;7846;48.830;9.116;2022-12-22T09:07:38;3.73;;;1.40;;
15488;SDS011;7846;48.830;9.116;2022-12-22T09:10:05;4.87;;;1.53;;
15488;SDS011;7846;48.830;9.116;2022-12-22T09:12:31;4.17;;;1.23;;
15488;SDS011;7846;48.830;9.116;2022-12-22T09:14:57;5.97;;;1.43;;
15488;SDS011;7846;48.830;9.116;2022-12-22T09:17:23;7.23;;;1.60;;
15488;SDS011;7846;48.830;9.116;2022-12-22T09:19:51;6.10;;;1.70;;
15488;SDS011;7846;48.830;9.116;2022-12-22T09:22:17;5.47;;;1.43;;
15488;SDS011;7846;48.830;9.116;2022-12-22T09:24:42;5.20;;;1.53;;
15488;SDS011;7846;48.830;9.116;2022-12-22T09:27:10;6.87;;;1.57;;
15488;SDS011;7846;48.830;9.116;2022-12-22T09:29:36;5.80;;;1.60;;
15488;SDS011;7846;48.830;9.116;2022-12-22T09:32:03;5.53;;;1.80;;
15488;SDS011;7846;48.830;9.116;2022-12-22T09:34:28;4.67;;;1.70;;
15488;SDS011;7846;48.830;9.116;2022-12-22T09:36:55;7.83;;;1.80;;
15488;SDS011;7846;48.830;9.116;2022-12-22T09:39:34;4.60;;;1.60;;
15488;SDS011;7846;48.830;9.116;2022-12-22T09:42:00;4.80;;;1.50;;
15488;SDS011;7846;48.830;9.116;2022-12-22T09:44:30;4.90;;;1.50;;
15488;SDS011;7846;48.830;9.116;2022-12-22T09:46:59;6.57;;;1.50;;
15488;SDS011;7846;48.830;9.116;2022-12-22T09:49:26;5.67;;;1.30;;
15488;SDS011;7846;48.830;9.116;2022-12-22T09:51:54;3.90;;;1.60;;
15488;SDS011;7846;48.830;9.116;2022-12-22T09:54:23;7.10;;;2.83;;
15488;SDS011;7846;48.830;9.116;2022-12-22T09:56:49;5.23;;;2.07;;
15488;SDS011;7846;48.830;9.116;2022-12-22T09:59:15;5.10;;;1.60;;
15488;SDS011;7846;48.830;9.116;2022-12-22T10:04:54;5.47;;;2.37;;
15488;SDS011;7846;48.830;9.116;2022-12-22T10:07:32;6.43;;;1.93;;
15488;SDS011;7846;48.830;9.116;2022-12-22T10:12:53;5.17;;;1.57;;
15488;SDS011;7846;48.830;9.116;2022-12-22T10:15:20;3.70;;;1.43;;
15488;SDS011;7846;48.830;9.116;2022-12-22T10:17:51;3.93;;;1.30;;
15488;SDS011;7846;48.830;9.116;2022-12-22T10:20:20;3.13;;;1.30;;
15488;SDS011;7846;48.830;9.116;2022-12-22T10:22:51;3.93;;;1.20;;
15488;SDS011;7846;48.830;9.116;2022-12-22T10:28:06;2.60;;;1.30;;
15488;SDS011;7846;48.830;9.116;2022-12-22T10:30:38;3.37;;;1.23;;
15488;SDS011;7846;48.830;9.116;2022-12-22T10:33:08;2.70;;;1.10;;
15488;SDS011;7846;48.830;9.116;2022-12-22T10:35:38;3.30;;;1.20;;
15488;SDS011;7846;48.830;9.116;2022-12-22T10:38:12;2.33;;;0.83;;
15488;SDS011;7846;48.830;9.116;2022-12-22T10:40:59;2.63;;;1.13;;
15488;SDS011;7846;48.830;9.116;2022-12-22T10:43:34;5.13;;;1.23;;
15488;SDS011;7846;48.830;9.116;2022-12-22T10:46:03;4.07;;;1.30;;
15488;SDS011;7846;48.830;9.116;2022-12-22T10:48:33;3.23;;;1.17;;
15488;SDS011;7846;48.830;9.116;2022-12-22T10:51:03;2.03;;;1.00;;
15488;SDS011;7846;48.830;9.116;2022-12-22T10:53:48;3.03;;;1.03;;
15488;SDS011;7846;48.830;9.116;2022-12-22T10:56:23;4.43;;;1.33;;
15488;SDS011;7846;48.830;9.116;2022-12-22T10:58:54;3.23;;;1.33;;
15488;SDS011;7846;48.830;9.116;2022-12-22T11:01:22;2.77;;;1.00;;
15488;SDS011;7846;48.830;9.116;2022-12-22T11:03:49;2.97;;;1.10;;
15488;SDS011;7846;48.830;9.116;2022-12-22T11:06:14;2.60;;;0.90;;
15488;SDS011;7846;48.830;9.116;2022-12-22T11:08:40;2.70;;;1.20;;
15488;SDS011;7846;48.830;9.116;2022-12-22T11:11:06;2.60;;;1.10;;
15488;SDS011;7846;48.830;9.116;2022-12-22T11:16:11;2.63;;;1.00;;
15488;SDS011;7846;48.830;9.116;2022-12-22T11:19:08;2.23;;;0.90;;
15488;SDS011;7846;48.830;9.116;2022-12-22T11:22:25;2.40;;;0.83;;
15488;SDS011;7846;48.830;9.116;2022-12-22T11:25:19;1.70;;;0.90;;
15488;SDS011;7846;48.830;9.116;2022-12-22T11:28:15;2.77;;;0.70;;
15488;SDS011;7846;48.830;9.116;2022-12-22T11:34:37;1.53;;;0.67;;
15488;SDS011;7846;48.830;9.116;2022-12-22T11:40:38;2.60;;;0.70;;
15488;SDS011;7846;48.830;9.116;2022-12-22T11:54:39;1.40;;;0.83;;
15488;SDS011;7846;48.830;9.116;2022-12-22T11:57:21;2.50;;;0.80;;
15488;SDS011;7846;48.830;9.116;2022-12-22T12:00:09;2.80;;;0.90;;
15488;SDS011;7846;48.830;9.116;2022-12-22T12:10:51;1.87;;;0.90;;
15488;SDS011;7846;48.830;9.116;2022-12-22T12:13:35;1.53;;;0.80;;
15488;SDS011;7846;48.830;9.116;2022-12-22T12:16:12;1.57;;;0.77;;
15488;SDS011;7846;48.830;9.116;2022-12-22T12:21:34;1.47;;;0.80;;
15488;SDS011;7846;48.830;9.116;2022-12-22T12:24:23;1.30;;;0.70;;
15488;SDS011;7846;48.830;9.116;2022-12-22T12:29:59;2.33;;;0.80;;
15488;SDS011;7846;48.830;9.116;2022-12-22T12:32:33;2.30;;;1.00;;
15488;SDS011;7846;48.830;9.116;2022-12-22T12:35:54;1.00;;;0.80;;
15488;SDS011;7846;48.830;9.116;2022-12-22T12:38:12;2.33;;;0.90;;
15488;SDS011;7846;48.830;9.116;2022-12-22T12:43:37;2.73;;;0.80;;
15488;SDS011;7846;48.830;9.116;2022-12-22T12:47:06;1.57;;;0.80;;
15488;SDS011;7846;48.830;9.116;2022-12-22T12:51:58;2.07;;;0.90;;
15488;SDS011;7846;48.830;9.116;2022-12-22T12:56:59;2.63;;;0.97;;
15488;SDS011;7846;48.830;9.116;2022-12-22T13:08:14;3.40;;;0.80;;
15488;SDS011;7846;48.830;9.116;2022-12-22T13:24:41;1.57;;;0.90;;
15488;SDS011;7846;48.830;9.116;2022-12-22T13:27:12;1.67;;;0.90;;
15488;SDS011;7846;48.830;9.116;2022-12-22T13:32:21;3.40;;;1.27;;
15488;SDS011;7846;48.830;9.116;2022-12-22T13:37:24;3.97;;;0.97;;
15488;SDS011;7846;48.830;9.116;2022-12-22T13:43:02;2.30;;;1.00;;
15488;SDS011;7846;48.830;9.116;2022-12-22T13:45:38;2.20;;;0.93;;
15488;SDS011;7846;48.830;9.116;2022-12-22T13:48:16;3.23;;;1.00;;
15488;SDS011;7846;48.830;9.116;2022-12-22T13:50:46;1.67;;;0.80;;
15488;SDS011;7846;48.830;9.116;2022-12-22T13:53:55;2.30;;;0.80;;
15488;SDS011;7846;48.830;9.116;2022-12-22T13:57:02;1.80;;;0.90;;
15488;SDS011;7846;48.830;9.116;2022-12-22T13:59:40;2.67;;;1.10;;
15488;SDS011;7846;48.830;9.116;2022-12-22T14:04:33;1.97;;;0.87;;
15488;SDS011;7846;48.830;9.116;2022-12-22T14:07:14;1.23;;;0.70;;
15488;SDS011;7846;48.830;9.116;2022-12-22T14:09:43;3.80;;;1.00;;
15488;SDS011;7846;48.830;9.116;2022-12-22T14:12:13;3.53;;;1.00;;
15488;SDS011;7846;48.830;9.116;2022-12-22T14:14:48;2.80;;;1.20;;
15488;SDS011;7846;48.830;9.116;2022-12-22T14:17:25;2.07;;;1.10;;
15488;SDS011;7846;48.830;9.116;2022-12-22T14:19:55;2.83;;;1.00;;
15488;SDS011;7846;48.830;9.116;2022-12-22T14:22:24;4.73;;;1.40;;
15488;SDS011;7846;48.830;9.116;2022-12-22T14:24:56;5.27;;;1.30;;
15488;SDS011;7846;48.830;9.116;2022-12-22T14:30:00;3.27;;;1.10;;
15488;SDS011;7846;48.830;9.116;2022-12-22T14:32:36;5.47;;;1.57;;
15488;SDS011;7846;48.830;9.116;2022-12-22T14:35:39;4.50;;;1.40;;
15488;SDS011;7846;48.830;9.116;2022-12-22T14:40:34;6.20;;;1.47;;
15488;SDS011;7846;48.830;9.116;2022-12-22T14:43:03;5.00;;;1.50;;
15488;SDS011;7846;48.830;9.116;2022-12-22T14:45:41;7.60;;;1.30;;
15488;SDS011;7846;48.830;9.116;2022-12-22T14:48:08;8.03;;;1.50;;
15488;SDS011;7846;48.830;9.116;2022-12-22T14:50:45;5.43;;;1.43;;
15488;SDS011;7846;48.830;9.116;2022-12-22T14:53:13;4.97;;;1.40;;
15488;SDS011;7846;48.830;9.116;2022-12-22T14:55:41;4.37;;;1.67;;
15488;SDS011;7846;48.830;9.116;2022-12-22T14:58:15;4.77;;;1.50;;
15488;SDS011;7846;48.830;9.116;2022-12-22T15:03:36;8.63;;;1.90;;
15488;SDS011;7846;48.830;9.116;2022-12-22T15:11:28;5.33;;;1.40;;
15488;SDS011;7846;48.830;9.116;2022-12-22T15:13:55;7.90;;;2.03;;
15488;SDS011;7846;48.830;9.116;2022-12-22T15:16:21;5.80;;;2.00;;
15488;SDS011;7846;48.830;9.116;2022-12-22T15:18:47;6.17;;;1.90;;
15488;SDS011;7846;48.830;9.116;2022-12-22T15:21:17;5.73;;;1.50;;
15488;SDS011;7846;48.830;9.116;2022-12-22T15:23:44;7.67;;;1.90;;
15488;SDS011;7846;48.830;9.116;2022-12-22T15:26:10;7.90;;;2.37;;
15488;SDS011;7846;48.830;9.116;2022-12-22T15:28:35;8.90;;;3.00;;
15488;SDS011;7846;48.830;9.116;2022-12-22T15:31:02;8.20;;;3.77;;
15488;SDS011;7846;48.830;9.116;2022-12-22T15:33:29;10.43;;;4.83;;
15488;SDS011;7846;48.830;9.116;2022-12-22T15:35:56;8.33;;;3.10;;
15488;SDS011;7846;48.830;9.116;2022-12-22T15:38:22;18.63;;;10.70;;
15488;SDS011;7846;48.830;9.116;2022-12-22T15:40:48;8.87;;;4.17;;
15488;SDS011;7846;48.830;9.116;2022-12-22T15:43:14;22.03;;;10.73;;
15488;SDS011;7846;48.830;9.116;2022-12-22T15:45:41;18.17;;;9.43;;
15488;SDS011;7846;48.830;9.116;2022-12-22T15:51:03;14.63;;;6.80;;
15488;SDS011;7846;48.830;9.116;2022-12-22T15:53:32;9.50;;;5.23;;
15488;SDS011;7846;48.830;9.116;2022-12-22T15:55:59;6.70;;;3.13;;
15488;SDS011;7846;48.830;9.116;2022-12-22T15:58:26;8.07;;;3.37;;
15488;SDS011;7846;48.830;9.116;2022-12-22T16:00:56;6.67;;;2.37;;
15488;SDS011;7846;48.830;9.116;2022-12-22T16:03:21;5.03;;;2.20;;
15488;SDS011;7846;48.830;9.116;2022-12-22T16:05:47;12.20;;;7.20;;
15488;SDS011;7846;48.830;9.116;2022-12-22T16:08:13;8.20;;;3.77;;
15488;SDS011;7846;48.830;9.116;2022-12-22T16:10:40;6.63;;;2.50;;
15488;SDS011;7846;48.830;9.116;2022-12-22T16:13:07;6.63;;;2.50;;
15488;SDS011;7846;48.830;9.116;2022-12-22T16:15:36;5.10;;;2.50;;
15488;SDS011;7846;48.830;9.116;2022-12-22T16:18:01;5.07;;;2.00;;
15488;SDS011;7846;48.830;9.116;2022-12-22T16:20:30;5.53;;;1.90;;
15488;SDS011;7846;48.830;9.116;2022-12-22T16:23:04;5.90;;;2.10;;
15488;SDS011;7846;48.830;9.116;2022-12-22T16:25:35;5.10;;;1.80;;
15488;SDS011;7846;48.830;9.116;2022-12-22T16:28:02;6.40;;;1.90;;
15488;SDS011;7846;48.830;9.116;2022-12-22T16:30:35;6.23;;;1.97;;
15488;SDS011;7846;48.830;9.116;2022-12-22T16:33:04;4.70;;;1.83;;
15488;SDS011;7846;48.830;9.116;2022-12-22T16:35:36;4.93;;;1.90;;
15488;SDS011;7846;48.830;9.116;2022-12-22T16:38:04;6.27;;;2.43;;
15488;SDS011;7846;48.830;9.116;2022-12-22T16:40:32;6.20;;;2.03;;
15488;SDS011;7846;48.830;9.116;2022-12-22T16:43:05;5.57;;;2.40;;
15488;SDS011;7846;48.830;9.116;2022-12-22T16:45:48;6.97;;;2.23;;
15488;SDS011;7846;48.830;9.116;2022-12-22T16:48:25;8.03;;;2.37;;
15488;SDS011;7846;48.830;9.116;2022-12-22T16:51:03;6.63;;;1.90;;
15488;SDS011;7846;48.830;9.116;2022-12-22T16:53:28;7.67;;;1.97;;
15488;SDS011;7846;48.830;9.116;2022-12-22T16:55:56;7.63;;;2.53;;
15488;SDS011;7846;48.830;9.116;2022-12-22T16:58:25;4.73;;;2.00;;
15488;SDS011;7846;48.830;9.116;2022-12-22T17:01:16;5.70;;;2.23;;
15488;SDS011;7846;48.830;9.116;2022-12-22T17:03:45;8.53;;;2.10;;
15488;SDS011;7846;48.830;9.116;2022-12-22T17:06:10;9.17;;;2.00;;
15488;SDS011;7846;48.830;9.116;2022-12-22T17:08:37;4.27;;;1.83;;
15488;SDS011;7846;48.830;9.116;2022-12-22T17:11:07;6.17;;;1.87;;
15488;SDS011;7846;48.830;9.116;2022-12-22T17:13:34;7.23;;;2.10;;
15488;SDS011;7846;48.830;9.116;2022-12-22T17:16:01;7.50;;;2.30;;
15488;SDS011;7846;48.830;9.116;2022-12-22T17:18:29;7.97;;;2.20;;
15488;SDS011;7846;48.830;9.116;2022-12-22T17:20:55;6.87;;;2.13;;
15488;SDS011;7846;48.830;9.116;2022-12-22T17:23:27;9.17;;;2.13;;
15488;SDS011;7846;48.830;9.116;2022-12-22T17:26:00;8.90;;;2.77;;
15488;SDS011;7846;48.830;9.116;2022-12-22T17:28:29;9.97;;;3.07;;
15488;SDS011;7846;48.830;9.116;2022-12-22T17:30:55;7.23;;;2.30;;
15488;SDS011;7846;48.830;9.116;2022-12-22T17:33:26;6.33;;;2.33;;
15488;SDS011;7846;48.830;9.116;2022-12-22T17:35:51;10.43;;;2.60;;
15488;SDS011;7846;48.830;9.116;2022-12-22T17:38:21;13.47;;;2.97;;
15488;SDS011;7846;48.830;9.116;2022-12-22T17:40:51;9.60;;;2.57;;
15488;SDS011;7846;48.830;9.116;2022-12-22T17:43:17;11.50;;;3.20;;